createdAt,value
2022-10-08T00:00:25.197Z,100737.98
2022-10-08T00:04:06.906Z,100737.80
2022-10-08T00:07:33.817Z,100737.45
2022-10-08T00:11:03.373Z,100734.13
2022-10-08T00:14:30.144Z,100731.27
2022-10-08T00:17:57.125Z,100731.86
2022-10-08T00:21:26.130Z,100726.70
2022-10-08T00:24:55.785Z,100718.80
2022-10-08T00:28:23.109Z,100711.48
2022-10-08T00:31:51.932Z,100707.55
2022-10-08T00:35:19.557Z,100706.72
2022-10-08T00:38:46.483Z,100704.18
2022-10-08T00:42:14.722Z,100701.58
2022-10-08T00:45:43.437Z,100700.10
2022-10-08T00:49:20.331Z,100696.38
2022-10-08T00:52:50.811Z,100692.79
2022-10-08T00:56:17.481Z,100691.25
2022-10-08T00:59:44.552Z,100688.81
2022-10-08T01:03:12.178Z,100687.70
2022-10-08T01:06:47.755Z,100682.80
2022-10-08T01:10:26.287Z,100676.13
2022-10-08T01:14:05.930Z,100672.79
2022-10-08T01:17:45.627Z,100670.30
2022-10-08T01:21:17.652Z,100665.13
2022-10-08T01:25:05.999Z,100666.35
2022-10-08T01:28:36.770Z,100661.98
2022-10-08T01:32:06.041Z,100660.70
2022-10-08T01:35:37.982Z,100658.61
2022-10-08T01:39:10.357Z,100647.71
2022-10-08T01:42:40.587Z,100640.35
2022-10-08T01:46:12.739Z,100644.41
2022-10-08T01:49:44.101Z,100641.29
2022-10-08T01:53:15.105Z,100641.47
2022-10-08T01:56:44.829Z,100640.38
2022-10-08T02:00:16.644Z,100634.05
2022-10-08T02:04:03.652Z,100632.27
2022-10-08T02:07:33.165Z,100628.36
2022-10-08T02:10:59.871Z,100622.68
2022-10-08T02:14:29.090Z,100623.54
2022-10-08T02:18:06.463Z,100619.00
2022-10-08T02:21:35.285Z,100618.86
2022-10-08T02:25:08.423Z,100616.67
2022-10-08T02:28:41.291Z,100616.80
2022-10-08T02:32:14.822Z,100619.66
2022-10-08T02:35:46.115Z,100616.39
2022-10-08T02:39:15.548Z,100617.61
2022-10-08T02:42:46.210Z,100619.98
2022-10-08T02:46:17.469Z,100621.59
2022-10-08T02:49:50.664Z,100620.39
2022-10-08T02:53:18.958Z,100618.59
2022-10-08T02:56:52.874Z,100617.10
2022-10-08T03:00:20.312Z,100618.23
2022-10-08T03:03:53.859Z,100617.91
2022-10-08T03:07:23.237Z,100614.77
2022-10-08T03:10:50.403Z,100610.45
2022-10-08T03:14:20.488Z,100608.53
2022-10-08T03:17:50.315Z,100608.42
2022-10-08T03:21:18.228Z,100610.99
2022-10-08T03:24:44.976Z,100614.72
2022-10-08T03:28:11.863Z,100613.77
2022-10-08T03:31:38.709Z,100609.44
2022-10-08T03:35:05.574Z,100607.91
2022-10-08T03:38:34.992Z,100608.19
2022-10-08T03:42:01.731Z,100603.66
2022-10-08T03:45:28.352Z,100603.81
2022-10-08T03:48:54.938Z,100607.15
2022-10-08T03:52:21.756Z,100603.47
2022-10-08T03:55:48.317Z,100613.21
2022-10-08T03:59:15.056Z,100604.61
2022-10-08T04:02:42.035Z,100602.30
2022-10-08T04:06:09.806Z,100598.56
2022-10-08T04:09:36.667Z,100598.98
2022-10-08T04:13:04.815Z,100598.27
2022-10-08T04:16:31.620Z,100600.56
2022-10-08T04:19:58.777Z,100597.24
2022-10-08T04:23:25.321Z,100597.48
2022-10-08T04:27:02.706Z,100599.15
2022-10-08T04:30:31.453Z,100602.02
2022-10-08T04:33:58.236Z,100596.11
2022-10-08T04:37:24.758Z,100597.36
2022-10-08T04:41:02.407Z,100590.81
2022-10-08T04:44:29.159Z,100580.79
2022-10-08T04:47:55.594Z,100588.06
2022-10-08T04:51:24.616Z,100583.47
2022-10-08T04:54:51.795Z,100590.24
2022-10-08T04:58:18.298Z,100588.85
2022-10-08T05:01:45.037Z,100582.52
2022-10-08T05:05:12.617Z,100575.42
2022-10-08T05:08:42.137Z,100570.79
2022-10-08T05:12:09.117Z,100573.60
2022-10-08T05:15:37.491Z,100580.39
2022-10-08T05:19:04.912Z,100574.66
2022-10-08T05:22:31.821Z,100575.50
2022-10-08T05:25:58.564Z,100577.30
2022-10-08T05:29:25.073Z,100569.92
2022-10-08T05:32:51.759Z,100569.89
2022-10-08T05:36:22.290Z,100579.85
2022-10-08T05:39:48.770Z,100582.77
2022-10-08T05:43:15.308Z,100573.39
2022-10-08T05:46:42.772Z,100568.82
2022-10-08T05:50:11.389Z,100572.56
2022-10-08T05:53:41.393Z,100569.98
2022-10-08T05:57:07.975Z,100577.25
2022-10-08T06:00:34.334Z,100578.53
2022-10-08T06:04:08.537Z,100578.17
2022-10-08T06:07:36.060Z,100587.77
2022-10-08T06:11:03.127Z,100590.81
2022-10-08T06:14:29.866Z,100589.55
2022-10-08T06:17:57.583Z,100586.77
2022-10-08T06:21:26.430Z,100583.46
2022-10-08T06:24:53.174Z,100575.16
2022-10-08T06:28:20.026Z,100580.86
2022-10-08T06:31:47.082Z,100576.56
2022-10-08T06:35:14.342Z,100567.50
2022-10-08T06:38:41.077Z,100571.89
2022-10-08T06:42:08.622Z,100567.23
2022-10-08T06:45:40.947Z,100570.26
2022-10-08T06:49:08.394Z,100584.20
2022-10-08T06:52:35.164Z,100581.54
2022-10-08T06:56:03.417Z,100586.55
2022-10-08T06:59:30.121Z,100589.86
2022-10-08T07:02:57.519Z,100597.83
2022-10-08T07:06:25.883Z,100587.17
2022-10-08T07:09:52.313Z,100571.59
2022-10-08T07:13:18.898Z,100569.31
2022-10-08T07:16:46.033Z,100571.45
2022-10-08T07:20:13.194Z,100566.17
2022-10-08T07:23:42.602Z,100566.90
2022-10-08T07:27:10.814Z,100565.11
2022-10-08T07:30:39.446Z,100562.88
2022-10-08T07:34:08.411Z,100564.40
2022-10-08T07:37:35.294Z,100560.16
2022-10-08T07:41:02.278Z,100568.69
2022-10-08T07:44:28.932Z,100563.87
2022-10-08T07:47:55.795Z,100565.17
2022-10-08T07:51:23.398Z,100570.96
2022-10-08T07:54:50.356Z,100572.17
2022-10-08T07:58:17.245Z,100573.34
2022-10-08T08:01:44.520Z,100577.63
2022-10-08T08:05:12.598Z,100572.55
2022-10-08T08:08:40.670Z,100566.96
2022-10-08T08:12:07.323Z,100553.65
2022-10-08T08:15:34.420Z,100555.05
2022-10-08T08:19:03.051Z,100559.09
2022-10-08T08:22:30.642Z,100551.02
2022-10-08T08:25:57.592Z,100556.39
2022-10-08T08:29:25.371Z,100550.66
2022-10-08T08:32:55.167Z,100546.30
2022-10-08T08:36:25.874Z,100547.16
2022-10-08T08:39:52.784Z,100550.27
2022-10-08T08:43:19.858Z,100550.05
2022-10-08T08:46:53.514Z,100550.61
2022-10-08T08:50:26.292Z,100557.61
2022-10-08T08:53:53.824Z,100550.42
2022-10-08T08:57:38.148Z,100555.16
2022-10-08T09:01:15.494Z,100555.81
2022-10-08T09:04:46.333Z,100561.50
2022-10-08T09:08:22.369Z,100564.45
2022-10-08T09:11:49.326Z,100567.21
2022-10-08T09:15:26.952Z,100573.14
2022-10-08T09:18:54.883Z,100564.67
2022-10-08T09:22:27.555Z,100551.48
2022-10-08T09:25:58.960Z,100555.00
2022-10-08T09:29:37.779Z,100557.16
2022-10-08T09:33:18.653Z,100557.02
2022-10-08T09:36:48.267Z,100542.46
2022-10-08T09:40:26.773Z,100543.40
2022-10-08T09:44:16.238Z,100544.73
2022-10-08T09:47:43.582Z,100542.68
2022-10-08T09:51:18.962Z,100538.58
2022-10-08T09:54:50.328Z,100537.00
2022-10-08T09:58:20.654Z,100534.34
2022-10-08T10:01:49.931Z,100536.27
2022-10-08T10:05:27.273Z,100536.71
2022-10-08T10:09:03.659Z,100534.29
2022-10-08T10:12:38.066Z,100537.91
2022-10-08T10:16:10.180Z,100540.42
2022-10-08T10:19:43.479Z,100536.74
2022-10-08T10:23:18.010Z,100538.45
2022-10-08T10:26:47.471Z,100536.57
2022-10-08T10:30:21.206Z,100533.38
2022-10-08T10:33:58.950Z,100537.59
2022-10-08T10:37:35.433Z,100534.69
2022-10-08T10:41:13.093Z,100537.09
2022-10-08T10:44:53.454Z,100534.44
2022-10-08T10:48:20.032Z,100526.30
2022-10-08T10:52:07.373Z,100516.70
2022-10-08T10:55:40.215Z,100511.30
2022-10-08T10:59:36.032Z,100513.91
2022-10-08T11:03:12.064Z,100514.32
2022-10-08T11:07:02.974Z,100519.17
2022-10-08T11:10:41.847Z,100514.55
2022-10-08T11:14:21.319Z,100513.00
2022-10-08T11:18:12.170Z,100510.49
2022-10-08T11:21:49.672Z,100513.86
2022-10-08T11:25:44.673Z,100516.61
2022-10-08T11:29:30.159Z,100515.21
2022-10-08T11:33:12.883Z,100514.59
2022-10-08T11:36:48.893Z,100504.44
2022-10-08T11:40:27.167Z,100509.16
2022-10-08T11:44:00.909Z,100503.26
2022-10-08T11:47:53.843Z,100503.77
2022-10-08T11:51:41.251Z,100501.14
2022-10-08T11:55:19.134Z,100497.98
2022-10-08T11:58:54.596Z,100492.66
2022-10-08T12:02:30.110Z,100488.49
2022-10-08T12:05:59.096Z,100489.86
2022-10-08T12:09:27.732Z,100486.92
2022-10-08T12:13:24.425Z,100488.66
2022-10-08T12:17:11.913Z,100490.67
2022-10-08T12:20:41.629Z,100487.34
2022-10-08T12:24:50.354Z,100488.08
2022-10-08T12:28:52.131Z,100484.11
2022-10-08T12:32:22.002Z,100486.70
2022-10-08T12:36:00.499Z,100481.88
2022-10-08T12:39:40.985Z,100478.38
2022-10-08T12:43:23.280Z,100482.02
2022-10-08T12:47:01.057Z,100484.61
2022-10-08T12:50:49.812Z,100488.59
2022-10-08T12:54:26.404Z,100485.34
2022-10-08T12:57:57.058Z,100484.29
2022-10-08T13:01:24.897Z,100481.79
2022-10-08T13:04:53.869Z,100485.78
2022-10-08T13:08:40.174Z,100484.19
2022-10-08T13:12:11.169Z,100470.33
2022-10-08T13:15:38.741Z,100474.54
2022-10-08T13:19:23.814Z,100475.75
2022-10-08T13:22:52.711Z,100476.52
2022-10-08T13:26:43.263Z,100482.46
2022-10-08T13:30:29.336Z,100482.17
2022-10-08T13:34:04.054Z,100487.45
2022-10-08T13:37:37.392Z,100490.39
2022-10-08T13:41:06.617Z,100488.19
2022-10-08T13:44:35.358Z,100494.79
2022-10-08T13:48:02.302Z,100490.95
2022-10-08T13:51:29.975Z,100495.68
2022-10-08T13:55:02.666Z,100492.28
2022-10-08T13:58:33.460Z,100495.11
2022-10-08T14:02:00.807Z,100495.00
2022-10-08T14:05:31.838Z,100497.48
2022-10-08T14:08:59.288Z,100500.41
2022-10-08T14:12:30.342Z,100505.25
2022-10-08T14:15:57.173Z,100502.30
2022-10-08T14:19:24.067Z,100499.91
2022-10-08T14:22:51.985Z,100503.98
2022-10-08T14:26:21.920Z,100507.82
2022-10-08T14:29:49.087Z,100507.36
2022-10-08T14:33:16.050Z,100506.50
2022-10-08T14:36:43.876Z,100505.09
2022-10-08T14:40:19.873Z,100503.61
2022-10-08T14:43:49.303Z,100506.30
2022-10-08T14:47:16.370Z,100503.67
2022-10-08T14:50:43.889Z,100503.86
2022-10-08T14:54:12.641Z,100504.33
2022-10-08T14:57:41.922Z,100505.41
2022-10-08T15:01:09.409Z,100506.10
2022-10-08T15:04:38.598Z,100515.66
2022-10-08T15:08:05.516Z,100516.98
2022-10-08T15:11:32.603Z,100519.43
2022-10-08T15:14:59.815Z,100518.59
2022-10-08T15:18:31.208Z,100515.59
2022-10-08T15:22:03.307Z,100519.11
2022-10-08T15:25:30.047Z,100514.16
2022-10-08T15:28:57.367Z,100519.73
2022-10-08T15:32:29.646Z,100523.59
2022-10-08T15:35:59.008Z,100528.30
2022-10-08T15:39:26.754Z,100529.22
2022-10-08T15:42:54.396Z,100530.65
2022-10-08T15:46:26.306Z,100531.66
2022-10-08T15:49:53.280Z,100523.77
2022-10-08T15:53:20.251Z,100527.75
2022-10-08T15:56:47.419Z,100526.48
2022-10-08T16:00:16.377Z,100528.11
2022-10-08T16:03:45.027Z,100531.15
2022-10-08T16:07:12.383Z,100535.05
2022-10-08T16:10:39.695Z,100539.27
2022-10-08T16:14:08.956Z,100544.95
2022-10-08T16:17:35.900Z,100549.02
2022-10-08T16:21:05.727Z,100553.83
2022-10-08T16:24:32.673Z,100566.41
2022-10-08T16:28:02.504Z,100576.88
2022-10-08T16:31:32.606Z,100581.20
2022-10-08T16:34:59.149Z,100588.89
2022-10-08T16:38:26.666Z,100587.79
2022-10-08T16:41:54.191Z,100592.58
2022-10-08T16:45:21.447Z,100596.42
2022-10-08T16:48:53.771Z,100599.50
2022-10-08T16:52:20.850Z,100603.85
2022-10-08T16:55:47.735Z,100603.41
2022-10-08T16:59:19.345Z,100611.73
2022-10-08T17:02:46.838Z,100621.07
2022-10-08T17:06:16.730Z,100625.70
2022-10-08T17:09:44.898Z,100628.65
2022-10-08T17:13:11.757Z,100627.92
2022-10-08T17:16:39.900Z,100635.84
2022-10-08T17:20:08.186Z,100637.91
2022-10-08T17:23:38.473Z,100643.66
2022-10-08T17:27:05.925Z,100648.80
2022-10-08T17:30:39.746Z,100650.23
2022-10-08T17:34:07.712Z,100647.20
2022-10-08T17:37:35.411Z,100658.70
2022-10-08T17:41:02.576Z,100666.36
2022-10-08T17:44:34.295Z,100672.67
2022-10-08T17:48:05.445Z,100678.16
2022-10-08T17:51:35.043Z,100691.20
2022-10-08T17:55:02.638Z,100698.20
2022-10-08T17:58:32.190Z,100703.80
2022-10-08T18:02:02.670Z,100709.71
2022-10-08T18:05:30.550Z,100711.60
2022-10-08T18:09:02.428Z,100713.39
2022-10-08T18:12:32.727Z,100712.20
2022-10-08T18:16:03.925Z,100713.36
2022-10-08T18:19:30.530Z,100716.77
2022-10-08T18:22:57.643Z,100719.02
2022-10-08T18:26:27.118Z,100724.29
2022-10-08T18:29:56.668Z,100729.14
2022-10-08T18:33:24.852Z,100731.36
2022-10-08T18:36:53.097Z,100736.30
2022-10-08T18:40:22.595Z,100736.11
2022-10-08T18:43:50.926Z,100736.52
2022-10-08T18:47:17.434Z,100737.71
2022-10-08T18:50:49.199Z,100736.44
2022-10-08T18:54:16.085Z,100735.59
2022-10-08T18:57:56.047Z,100745.40
2022-10-08T19:01:25.701Z,100746.31
2022-10-08T19:04:53.431Z,100747.02
2022-10-08T19:08:20.440Z,100748.40
2022-10-08T19:11:49.288Z,100750.14
2022-10-08T19:15:15.963Z,100752.06
2022-10-08T19:18:43.939Z,100754.67
2022-10-08T19:22:13.153Z,100755.67
2022-10-08T19:25:40.318Z,100758.04
2022-10-08T19:29:07.618Z,100758.02
2022-10-08T19:32:34.691Z,100759.73
2022-10-08T19:36:05.046Z,100763.50
2022-10-08T19:39:34.177Z,100767.03
2022-10-08T19:43:03.579Z,100771.68
2022-10-08T19:46:31.166Z,100775.59
2022-10-08T19:49:58.639Z,100782.37
2022-10-08T19:53:25.257Z,100787.18
2022-10-08T19:56:51.872Z,100791.54
2022-10-08T20:00:19.791Z,100798.63
2022-10-08T20:03:48.490Z,100809.48
2022-10-08T20:07:16.038Z,100815.62
2022-10-08T20:10:44.035Z,100819.86
2022-10-08T20:14:10.971Z,100825.31
2022-10-08T20:17:38.023Z,100823.58
2022-10-08T20:21:07.280Z,100830.41
2022-10-08T20:24:34.365Z,100841.59
2022-10-08T20:28:01.182Z,100846.25
2022-10-08T20:31:30.151Z,100847.52
2022-10-08T20:34:58.316Z,100850.03
2022-10-08T20:38:27.709Z,100850.63
2022-10-08T20:41:54.657Z,100846.73
2022-10-08T20:45:22.320Z,100854.44
2022-10-08T20:48:50.024Z,100851.23
2022-10-08T20:52:18.585Z,100852.10
2022-10-08T20:55:45.532Z,100857.39
2022-10-08T20:59:16.183Z,100862.38
2022-10-08T21:02:44.992Z,100867.17
2022-10-08T21:06:14.142Z,100872.71
2022-10-08T21:09:43.651Z,100871.32
2022-10-08T21:13:14.098Z,100866.23
2022-10-08T21:16:42.988Z,100866.88
2022-10-08T21:20:13.690Z,100871.41
2022-10-08T21:23:42.012Z,100876.49
2022-10-08T21:27:11.162Z,100880.48
2022-10-08T21:30:38.893Z,100888.84
2022-10-08T21:34:08.570Z,100887.67
2022-10-08T21:37:36.424Z,100884.38
2022-10-08T21:41:14.864Z,100885.66
2022-10-08T21:49:04.716Z,100889.14
2022-10-08T21:52:34.259Z,100889.87
2022-10-08T21:56:05.022Z,100890.92
2022-10-08T21:59:32.281Z,100900.09
2022-10-08T22:02:59.064Z,100905.77
2022-10-08T22:06:27.111Z,100906.56
2022-10-08T22:10:01.892Z,100910.98
2022-10-08T22:13:29.041Z,100916.16
2022-10-08T22:16:57.474Z,100920.00
2022-10-08T22:20:24.189Z,100927.67
2022-10-08T22:23:53.288Z,100935.59
2022-10-08T22:27:20.243Z,100940.93
2022-10-08T22:30:47.083Z,100946.59
2022-10-08T22:34:14.603Z,100948.73
2022-10-08T22:37:42.663Z,100951.48
2022-10-08T22:41:14.321Z,100952.33
2022-10-08T22:44:44.670Z,100956.21
2022-10-08T22:48:13.997Z,100958.59
2022-10-08T22:51:46.412Z,100954.89
2022-10-08T22:55:18.380Z,100956.61
2022-10-08T22:59:00.909Z,100961.18
2022-10-08T23:02:29.028Z,100965.38
2022-10-08T23:06:08.217Z,100968.73
2022-10-08T23:09:34.834Z,100964.77
2022-10-08T23:13:04.478Z,100969.45
2022-10-08T23:16:38.411Z,100970.33
2022-10-08T23:20:06.001Z,100966.14
2022-10-08T23:23:33.795Z,100976.78
2022-10-08T23:27:00.977Z,100985.70
2022-10-08T23:30:42.561Z,100991.70
2022-10-08T23:34:10.366Z,100990.00
2022-10-08T23:37:37.635Z,100994.13
2022-10-08T23:41:06.539Z,101003.75
2022-10-08T23:44:33.708Z,101007.44
2022-10-08T23:48:01.616Z,101010.20
2022-10-08T23:51:32.007Z,101014.34
2022-10-08T23:54:59.046Z,101007.98
2022-10-08T23:58:29.232Z,101015.77
